Time;durP1;ratioP1;P1;durP2;ratioP2;P2;SDS_P1;SDS_P2;PMS_P1;PMS_P2;Temp;Humidity;BMP_temperature;BMP_pressure;BME280_temperature;BME280_humidity;BME280_pressure;Samples;Min_cycle;Max_cycle;Signal;HPM_P1;HPM_P2
2022/11/14 00:01:06;;;;;;;13.45;8.38;;;;;;;11.62;96.42;101582.47;4946185;28;20494;-73
2022/11/14 00:03:53;;;;;;;16.35;8.73;;;;;;;11.51;96.91;101586.22;4955055;29;20406;-73
2022/11/14 00:06:39;;;;;;;12.23;8.18;;;;;;;11.47;96.77;101588.66;4954401;28;20050;-73
2022/11/14 00:09:27;;;;;;;13.77;7.70;;;;;;;11.64;97.60;101580.28;4955091;29;20070;-73
2022/11/14 00:12:13;;;;;;;14.13;8.25;;;;;;;11.49;96.40;101583.72;4936477;29;20521;-73
2022/11/14 00:14:59;;;;;;;15.23;8.98;;;;;;;11.48;97.71;101571.13;4952442;29;20043;-73
2022/11/14 00:17:46;;;;;;;14.52;8.10;;;;;;;11.46;98.29;101575.22;4954571;29;20043;-74
2022/11/14 00:20:33;;;;;;;14.50;8.10;;;;;;;11.55;97.69;101582.69;4943348;29;20054;-73
2022/11/14 00:23:20;;;;;;;14.55;8.07;;;;;;;11.55;98.54;101577.19;4953080;29;20051;-73
2022/11/14 00:26:07;;;;;;;13.35;8.00;;;;;;;11.48;99.18;101568.38;4951174;29;20046;-73
2022/11/14 00:28:54;;;;;;;12.10;7.35;;;;;;;11.58;97.40;101581.34;4954503;29;20054;-73
2022/11/14 00:31:41;;;;;;;13.60;8.02;;;;;;;11.41;97.99;101584.22;4954685;29;20051;-73
2022/11/14 00:34:27;;;;;;;14.27;8.35;;;;;;;11.51;97.40;101588.97;4954496;29;20047;-73
2022/11/14 00:37:13;;;;;;;12.30;7.60;;;;;;;11.47;98.97;101587.81;4955461;28;20062;-73
2022/11/14 00:40:00;;;;;;;15.00;9.00;;;;;;;11.61;98.42;101589.06;4953737;29;20390;-73
2022/11/14 00:42:46;;;;;;;14.00;8.10;;;;;;;11.69;96.87;101593.22;4951295;29;20058;-73
2022/11/14 00:45:33;;;;;;;15.65;8.95;;;;;;;11.52;96.41;101588.69;4936096;29;20074;-73
2022/11/14 00:48:19;;;;;;;12.45;7.43;;;;;;;11.32;96.78;101574.81;4935684;29;20455;-73
2022/11/14 00:51:06;;;;;;;14.50;7.75;;;;;;;11.14;97.75;101565.88;4950433;29;20047;-73
2022/11/14 00:53:52;;;;;;;14.43;7.70;;;;;;;11.22;96.87;101575.53;4954315;29;20047;-73
2022/11/14 00:56:39;;;;;;;14.43;8.15;;;;;;;11.39;97.18;101578.19;4954809;29;20039;-73
2022/11/14 00:59:25;;;;;;;13.32;7.82;;;;;;;11.31;97.18;101568.53;4948817;29;20043;-73
2022/11/14 01:02:11;;;;;;;11.55;7.40;;;;;;;11.30;96.65;101572.34;4954712;29;20054;-73
2022/11/14 01:04:59;;;;;;;13.90;7.55;;;;;;;11.24;94.81;101565.19;4940782;29;20407;-73
2022/11/14 01:07:46;;;;;;;11.73;6.80;;;;;;;11.10;96.77;101572.97;4935425;29;20510;-73
2022/11/14 01:10:33;;;;;;;13.68;7.65;;;;;;;11.34;96.26;101572.66;4941091;28;20388;-73
2022/11/14 01:13:20;;;;;;;14.70;7.65;;;;;;;11.17;95.20;101570.84;4934932;29;20048;-73
2022/11/14 01:16:07;;;;;;;11.38;7.22;;;;;;;11.31;95.15;101568.53;4954546;29;20042;-74
2022/11/14 01:18:53;;;;;;;12.82;7.35;;;;;;;11.34;95.12;101573.47;4954486;29;20081;-73
2022/11/14 01:21:40;;;;;;;12.48;7.10;;;;;;;11.45;95.08;101568.06;4948709;29;20054;-73
2022/11/14 01:24:27;;;;;;;15.27;8.32;;;;;;;11.43;95.76;101566.44;4952501;29;20047;-73
2022/11/14 01:27:13;;;;;;;14.43;7.75;;;;;;;11.32;95.42;101566.59;4954262;29;20059;-73
2022/11/14 01:30:00;;;;;;;15.88;8.00;;;;;;;11.26;95.92;101561.09;4952220;28;20054;-73
2022/11/14 01:32:46;;;;;;;14.45;7.88;;;;;;;11.30;95.85;101553.16;4953682;28;20062;-73
2022/11/14 01:35:34;;;;;;;13.88;8.35;;;;;;;11.19;95.62;101548.69;4953254;29;20039;-73
2022/11/14 01:38:20;;;;;;;15.15;7.75;;;;;;;11.48;95.50;101557.41;4954231;29;20050;-73
2022/11/14 01:41:07;;;;;;;12.05;7.90;;;;;;;11.58;95.37;101553.91;4939081;29;20044;-73
2022/11/14 01:43:53;;;;;;;12.27;7.15;;;;;;;11.42;95.26;101555.72;4935030;29;20059;-73
2022/11/14 01:46:42;;;;;;;12.38;7.70;;;;;;;11.42;94.36;101550.25;4934895;29;20075;-73
2022/11/14 01:49:37;;;;;;;14.15;8.70;;;;;;;11.52;94.59;101547.59;4943912;29;20505;-73
2022/11/14 01:52:37;;;;;;;14.27;8.48;;;;;;;11.69;93.85;101546.63;4944748;29;20054;-73
2022/11/14 01:55:26;;;;;;;11.88;8.30;;;;;;;11.72;95.95;101526.88;4954068;29;20055;-73
2022/11/14 01:58:14;;;;;;;14.63;8.73;;;;;;;11.74;94.85;101543.91;4953599;29;20050;-73
2022/11/14 02:01:02;;;;;;;16.88;7.90;;;;;;;11.72;94.96;101537.84;4952764;29;20051;-73
2022/11/14 02:03:52;;;;;;;14.25;7.90;;;;;;;11.68;96.83;101533.97;4954018;29;20055;-73
2022/11/14 02:06:39;;;;;;;14.93;8.18;;;;;;;11.76;95.93;101536.22;4953869;29;20054;-73
2022/11/14 02:09:29;;;;;;;13.60;8.55;;;;;;;11.80;96.00;101526.41;4948104;29;20043;-73
2022/11/14 02:12:18;;;;;;;15.18;8.52;;;;;;;11.83;94.63;101534.06;4953869;29;20051;-73
2022/11/14 02:15:05;;;;;;;13.77;8.57;;;;;;;11.83;95.73;101534.06;4965274;28;20406;-73
2022/11/14 02:17:52;;;;;;;14.27;7.68;;;;;;;11.87;96.76;101533.56;4934796;29;20048;-73
2022/11/14 02:20:42;;;;;;;13.00;8.18;;;;;;;11.85;96.34;101541.22;4934987;29;20047;-73
2022/11/14 02:23:30;;;;;;;14.07;8.10;;;;;;;11.69;95.90;101525.47;4934627;29;20059;-73
2022/11/14 02:26:21;;;;;;;16.00;8.75;;;;;;;11.62;94.98;101535.88;4934582;29;20044;-73
2022/11/14 02:29:09;;;;;;;15.27;8.98;;;;;;;11.73;94.77;101525.78;4940397;29;20490;-73
2022/11/14 02:31:56;;;;;;;14.45;7.75;;;;;;;11.80;94.96;101536.53;4938231;29;20399;-73
2022/11/14 02:34:42;;;;;;;14.63;8.02;;;;;;;11.74;94.97;101532.94;4938263;29;20501;-73
2022/11/14 02:37:28;;;;;;;13.52;7.55;;;;;;;11.51;96.68;101534.97;4938239;29;20395;-73
2022/11/14 02:40:16;;;;;;;12.30;8.45;;;;;;;11.58;95.99;101528.44;4942043;29;20043;-73
2022/11/14 02:43:03;;;;;;;11.40;7.35;;;;;;;11.52;98.58;101516.59;4955622;29;20055;-73
2022/11/14 02:45:49;;;;;;;14.60;8.23;;;;;;;11.62;95.73;101532.28;4957262;29;20820;-73
2022/11/14 02:48:35;;;;;;;14.88;8.68;;;;;;;11.59;95.24;101535.56;4956220;29;20380;-73
2022/11/14 02:51:25;;;;;;;14.55;7.75;;;;;;;11.62;94.82;101535.03;4939473;29;20050;-73
2022/11/14 02:54:11;;;;;;;11.65;7.30;;;;;;;11.77;95.02;101543.38;4937915;29;20039;-73
2022/11/14 02:56:58;;;;;;;12.68;7.38;;;;;;;11.79;94.88;101534.88;4944654;29;20047;-73
2022/11/14 02:59:44;;;;;;;12.38;7.07;;;;;;;11.77;94.38;101542.53;4955707;29;20039;-73
2022/11/14 03:02:31;;;;;;;12.13;7.40;;;;;;;11.75;94.87;101550.19;4937823;29;20044;-73
2022/11/14 03:05:17;;;;;;;12.02;7.57;;;;;;;11.63;95.74;101542.19;4937570;29;20062;-73
2022/11/14 03:08:03;;;;;;;13.25;7.25;;;;;;;11.80;94.69;101542.84;4948857;29;20043;-73
2022/11/14 03:10:49;;;;;;;17.48;8.48;;;;;;;11.79;93.18;101534.88;4954634;29;20039;-73
2022/11/14 03:13:36;;;;;;;10.32;6.40;;;;;;;11.83;94.09;101542.31;4946965;29;20510;-73
2022/11/14 03:16:22;;;;;;;13.30;6.63;;;;;;;11.52;95.02;101541.25;4950874;28;20059;-73
2022/11/14 03:19:09;;;;;;;13.43;6.93;;;;;;;11.35;94.78;101530.47;4938631;29;20043;-72
2022/11/14 03:21:55;;;;;;;12.27;7.25;;;;;;;11.47;94.45;101522.03;4939318;29;20052;-73
2022/11/14 03:24:41;;;;;;;10.55;6.50;;;;;;;11.42;94.71;101522.84;4937268;29;20040;-73
2022/11/14 03:27:28;;;;;;;10.60;6.53;;;;;;;11.55;96.13;101538.81;4936993;29;20052;-73
2022/11/14 03:30:14;;;;;;;11.30;7.05;;;;;;;11.28;95.12;101531.50;4947260;29;20410;-73
2022/11/14 03:33:00;;;;;;;16.25;6.57;;;;;;;11.39;95.23;101528.84;4937118;29;20052;-73
2022/11/14 03:35:51;;;;;;;11.57;6.22;;;;;;;11.48;95.16;101524.53;4937096;29;20043;-73
2022/11/14 03:38:38;;;;;;;10.85;6.85;;;;;;;11.36;94.54;101524.72;4953146;29;20116;-72
2022/11/14 03:41:25;;;;;;;15.00;7.85;;;;;;;11.29;95.21;101533.16;4953075;28;20051;-72
2022/11/14 03:44:12;;;;;;;13.50;6.88;;;;;;;11.34;95.04;101528.81;4956182;29;20055;-74
2022/11/14 03:46:58;;;;;;;10.68;6.22;;;;;;;11.52;94.82;101541.25;4955285;29;20059;-73
2022/11/14 03:49:45;;;;;;;12.50;7.13;;;;;;;11.37;94.52;101526.38;4942864;29;20157;-73
2022/11/14 03:52:31;;;;;;;13.93;7.00;;;;;;;11.56;94.31;101524.06;4954726;29;20039;-73
2022/11/14 03:55:17;;;;;;;10.50;6.10;;;;;;;11.50;93.87;101524.25;4955852;29;20043;-73
2022/11/14 03:58:03;;;;;;;10.45;6.95;;;;;;;11.54;92.90;101530.88;4955380;29;20055;-73
2022/11/14 04:00:50;;;;;;;12.70;6.88;;;;;;;11.68;92.98;101518.34;4938158;29;20055;-73
2022/11/14 04:03:36;;;;;;;10.32;6.25;;;;;;;11.74;91.79;101521.97;4936696;29;20467;-74
2022/11/14 04:06:22;;;;;;;11.70;6.95;;;;;;;11.65;92.37;101518.91;4935200;29;20056;-73
2022/11/14 04:09:09;;;;;;;9.70;6.25;;;;;;;11.80;91.78;101518.16;4936609;29;20046;-73
2022/11/14 04:11:55;;;;;;;10.27;5.95;;;;;;;11.93;92.55;101513.31;4936604;29;20047;-73
2022/11/14 04:14:42;;;;;;;10.15;5.82;;;;;;;11.98;91.21;101510.59;4936508;29;20455;-73
2022/11/14 04:17:31;;;;;;;11.32;6.00;;;;;;;12.06;91.30;101507.34;4938495;29;20059;-73
2022/11/14 04:20:24;;;;;;;11.55;6.70;;;;;;;11.76;91.95;101524.44;4937067;29;20048;-73
2022/11/14 04:23:11;;;;;;;9.68;6.35;;;;;;;11.86;91.84;101513.53;4955565;29;20510;-73
2022/11/14 04:25:58;;;;;;;9.75;6.30;;;;;;;11.97;91.27;101522.63;4938636;29;20048;-73
2022/11/14 04:28:44;;;;;;;12.80;6.82;;;;;;;11.92;91.53;101512.47;4936038;29;20044;-73
2022/11/14 04:31:30;;;;;;;11.32;6.53;;;;;;;11.92;91.71;101519.84;4954064;29;20046;-73
2022/11/14 04:34:17;;;;;;;8.90;6.15;;;;;;;11.66;92.50;101530.69;4952765;29;20398;-72
2022/11/14 04:37:03;;;;;;;12.15;6.63;;;;;;;11.73;91.96;101525.78;4954717;29;20043;-73
2022/11/14 04:39:50;;;;;;;10.95;6.05;;;;;;;11.81;92.51;101522.56;4953609;29;20055;-73
2022/11/14 04:42:36;;;;;;;9.77;6.20;;;;;;;11.86;91.28;101518.16;4936938;29;20056;-73
2022/11/14 04:45:22;;;;;;;10.45;6.93;;;;;;;11.90;92.52;101531.13;4935825;29;20047;-73
2022/11/14 04:48:09;;;;;;;11.32;6.30;;;;;;;11.94;91.64;101521.25;4951474;29;20039;-73
2022/11/14 04:50:56;;;;;;;9.30;5.70;;;;;;;11.82;90.84;101517.88;4942809;29;20056;-73
2022/11/14 04:53:42;;;;;;;11.00;6.25;;;;;;;11.89;91.22;101514.91;4953838;28;20099;-73
2022/11/14 04:56:28;;;;;;;12.05;6.40;;;;;;;12.03;91.87;101521.56;4954755;29;20044;-73
2022/11/14 04:59:15;;;;;;;9.50;5.63;;;;;;;11.99;92.23;101517.72;4954767;29;20050;-73
2022/11/14 05:02:06;;;;;;;10.48;5.68;;;;;;;11.92;92.38;101509.72;4943951;29;20434;-73
2022/11/14 05:04:52;;;;;;;9.10;5.68;;;;;;;12.04;92.02;101504.06;4946174;29;20505;-73
2022/11/14 05:07:41;;;;;;;11.65;6.18;;;;;;;12.09;91.02;101512.28;4954625;29;20388;-73
2022/11/14 05:10:28;;;;;;;9.73;5.50;;;;;;;12.03;92.63;101502.34;4945940;29;20070;-73
2022/11/14 05:13:15;;;;;;;8.63;5.30;;;;;;;12.08;94.02;101521.63;4953568;29;20047;-73
2022/11/14 05:16:01;;;;;;;10.48;6.05;;;;;;;12.04;94.60;101509.56;4954636;29;20051;-73
2022/11/14 05:18:47;;;;;;;9.98;6.35;;;;;;;11.95;95.70;101517.44;4953561;29;20042;-73
2022/11/14 05:21:34;;;;;;;9.20;6.18;;;;;;;12.02;94.46;101506.19;4940578;29;20058;-73
2022/11/14 05:24:20;;;;;;;12.40;6.30;;;;;;;11.97;94.10;101503.44;4954381;29;20062;-73
2022/11/14 05:27:07;;;;;;;10.77;6.40;;;;;;;12.15;93.76;101515.91;4944278;29;20046;-73
2022/11/14 05:29:54;;;;;;;9.40;6.15;;;;;;;11.96;94.86;101507.25;4938206;29;20043;-73
2022/11/14 05:32:40;;;;;;;10.23;6.20;;;;;;;12.03;94.50;101507.84;4942085;29;20052;-73
2022/11/14 05:35:27;;;;;;;15.60;6.50;;;;;;;12.04;94.32;101504.06;4935197;29;20128;-73
2022/11/14 05:38:13;;;;;;;9.18;6.15;;;;;;;11.98;95.88;101496.03;4947224;29;20050;-73
2022/11/14 05:41:05;;;;;;;10.80;7.20;;;;;;;11.81;95.91;101506.09;4942721;29;20054;-73
2022/11/14 05:43:51;;;;;;;10.90;5.90;;;;;;;11.79;96.42;101496.50;4952990;29;20047;-73
2022/11/14 05:46:38;;;;;;;12.38;7.30;;;;;;;11.70;97.39;101507.94;4953141;29;20407;-73
2022/11/14 05:49:24;;;;;;;11.20;6.85;;;;;;;11.63;98.19;101517.50;4943154;29;20059;-73
2022/11/14 05:52:10;;;;;;;14.10;7.22;;;;;;;11.55;99.25;101507.84;4954109;29;20398;-73
2022/11/14 05:54:57;;;;;;;11.25;7.13;;;;;;;11.55;99.29;101505.94;4951781;29;20055;-73
2022/11/14 05:57:43;;;;;;;15.65;7.18;;;;;;;11.58;99.54;101517.47;4936807;28;20047;-73
2022/11/14 06:00:30;;;;;;;16.65;8.40;;;;;;;11.62;99.50;101521.31;4947471;29;20051;-73
2022/11/14 06:03:30;;;;;;;11.55;7.15;;;;;;;11.59;99.42;101527.34;4934668;29;20047;-73
2022/11/14 06:06:19;;;;;;;10.90;7.03;;;;;;;11.70;98.41;101537.28;4938399;29;20059;-73
2022/11/14 06:09:06;;;;;;;12.63;7.13;;;;;;;11.66;98.61;101531.50;4945769;29;20043;-73
2022/11/14 06:11:52;;;;;;;14.32;8.10;;;;;;;11.68;98.96;101544.94;4940879;29;20046;-73
2022/11/14 06:14:38;;;;;;;10.48;6.40;;;;;;;11.65;99.27;101534.50;4938496;29;20040;-73
2022/11/14 06:17:24;;;;;;;11.57;6.45;;;;;;;11.73;98.71;101542.22;4954553;29;20046;-73
2022/11/14 06:20:14;;;;;;;12.90;7.78;;;;;;;11.68;99.31;101550.41;4953781;29;20051;-75
2022/11/14 06:23:01;;;;;;;12.30;7.15;;;;;;;11.71;99.07;101549.91;4938332;29;20048;-73
2022/11/14 06:25:47;;;;;;;11.88;7.80;;;;;;;11.77;99.24;101553.50;4939012;29;20510;-68
2022/11/14 06:28:34;;;;;;;13.98;7.65;;;;;;;11.77;99.33;101554.34;4946182;29;20040;-71
2022/11/14 06:31:22;;;;;;;12.90;7.55;;;;;;;11.71;100.00;101560.88;4952833;29;20483;-72
2022/11/14 06:34:10;;;;;;;13.30;7.68;;;;;;;11.76;98.90;101566.41;4957140;29;20055;-72
2022/11/14 06:36:56;;;;;;;11.32;7.25;;;;;;;11.75;99.48;101572.97;4949914;28;20043;-72
2022/11/14 06:39:43;;;;;;;12.27;8.02;;;;;;;11.72;99.06;101572.69;4956433;29;20411;-72
2022/11/14 06:42:29;;;;;;;14.57;7.78;;;;;;;11.81;98.50;101574.66;4950455;29;20035;-72
2022/11/14 06:45:15;;;;;;;15.00;8.32;;;;;;;11.85;98.73;101580.44;4938060;29;20052;-72
2022/11/14 06:48:02;;;;;;;12.90;8.15;;;;;;;11.88;98.48;101577.16;4937834;29;20475;-72
2022/11/14 06:50:56;;;;;;;17.00;8.30;;;;;;;12.07;97.77;101579.50;4940971;29;20522;-71
2022/11/14 06:53:43;;;;;;;12.57;7.18;;;;;;;12.08;97.58;101576.50;4937406;29;20056;-72
2022/11/14 06:56:30;;;;;;;13.57;7.95;;;;;;;12.07;97.76;101580.34;4953696;29;20055;-72
2022/11/14 06:59:29;;;;;;;15.15;8.23;;;;;;;12.10;97.70;101581.72;4936740;29;20043;-73
2022/11/14 07:02:20;;;;;;;12.65;7.78;;;;;;;11.94;98.11;101586.25;4937266;29;20056;-73
2022/11/14 07:05:07;;;;;;;14.00;7.63;;;;;;;12.05;98.13;101581.69;4944098;29;20052;-72
2022/11/14 07:07:53;;;;;;;17.27;7.63;;;;;;;12.02;98.22;101583.00;4956549;28;20145;-72
2022/11/14 07:10:39;;;;;;;13.00;7.65;;;;;;;12.07;98.61;101588.56;4956145;28;20054;-72
2022/11/14 07:13:25;;;;;;;14.38;8.65;;;;;;;12.09;98.35;101593.78;4951837;28;20052;-73
2022/11/14 07:16:12;;;;;;;13.75;7.43;;;;;;;12.08;97.56;101595.69;4948325;28;20479;-72
2022/11/14 07:19:00;;;;;;;12.60;8.25;;;;;;;12.25;97.94;101593.84;4955222;28;20051;-72
2022/11/14 07:21:47;;;;;;;13.73;8.25;;;;;;;12.11;97.88;101596.28;4956386;28;20059;-73
2022/11/14 07:24:34;;;;;;;12.95;7.85;;;;;;;12.14;97.68;101590.25;4947862;29;20416;-72
2022/11/14 07:27:21;;;;;;;12.77;8.23;;;;;;;12.32;97.59;101598.03;4936303;29;20055;-72
2022/11/14 07:30:28;;;;;;;12.60;7.40;;;;;;;12.34;97.47;101595.84;4954689;29;20043;-71
2022/11/14 07:33:20;;;;;;;13.23;7.47;;;;;;;12.23;98.32;101594.16;4937004;29;20055;-71
2022/11/14 07:36:08;;;;;;;17.17;8.35;;;;;;;12.32;98.67;101598.03;4944291;29;20606;-71
2022/11/14 07:38:54;;;;;;;15.07;8.70;;;;;;;12.24;98.32;101601.28;4956282;28;20047;-71
2022/11/14 07:41:40;;;;;;;15.13;8.45;;;;;;;12.27;98.05;101606.22;4953587;29;20058;-72
2022/11/14 07:44:27;;;;;;;15.23;7.95;;;;;;;12.27;98.83;101592.50;4954579;29;20102;-72
2022/11/14 07:47:13;;;;;;;14.50;9.27;;;;;;;12.33;98.46;101609.84;4953361;29;20055;-74
2022/11/14 07:50:03;;;;;;;12.18;7.47;;;;;;;12.33;98.49;101607.09;4955887;28;20051;-72
2022/11/14 07:52:51;;;;;;;16.02;9.05;;;;;;;12.40;98.93;101604.09;4954419;28;20058;-74
2022/11/14 07:55:38;;;;;;;20.52;10.63;;;;;;;12.42;98.61;101593.69;4936647;29;20052;-72
2022/11/14 07:58:24;;;;;;;14.90;9.63;;;;;;;12.40;98.11;101598.59;4936537;29;20047;-72
2022/11/14 08:01:13;;;;;;;19.67;10.48;;;;;;;12.48;98.18;101595.38;4948504;29;20051;-73
2022/11/14 08:03:59;;;;;;;17.52;10.63;;;;;;;12.60;97.61;101590.47;4955403;28;20056;-72
2022/11/14 08:06:46;;;;;;;18.83;10.07;;;;;;;12.56;97.13;101589.34;4952242;28;20426;-72
2022/11/14 08:09:32;;;;;;;17.00;9.85;;;;;;;12.55;97.86;101592.34;4951232;29;20054;-73
2022/11/14 08:12:19;;;;;;;16.13;9.55;;;;;;;12.66;96.42;101587.75;4955558;28;20059;-73
2022/11/14 08:15:09;;;;;;;16.38;9.27;;;;;;;12.70;95.76;101588.88;4950577;28;20047;-73
2022/11/14 08:17:59;;;;;;;14.63;8.85;;;;;;;12.80;95.50;101586.13;4955461;28;20047;-73
2022/11/14 08:20:46;;;;;;;16.98;9.18;;;;;;;12.86;95.57;101596.03;4954324;29;20051;-72
2022/11/14 08:23:33;;;;;;;16.75;10.15;;;;;;;12.84;96.02;101589.16;4953556;28;20047;-72
2022/11/14 08:26:19;;;;;;;16.75;8.98;;;;;;;12.86;95.03;101585.03;4949051;28;20063;-73
2022/11/14 08:29:06;;;;;;;16.17;8.18;;;;;;;12.99;94.51;101588.38;4939702;29;20147;-72
2022/11/14 08:31:52;;;;;;;16.40;9.30;;;;;;;12.85;95.93;101588.09;4935959;29;20058;-73
2022/11/14 08:34:45;;;;;;;15.85;8.82;;;;;;;13.15;94.80;101587.31;4951191;29;20802;-73
2022/11/14 08:37:31;;;;;;;15.60;8.55;;;;;;;13.15;94.77;101584.56;4954986;28;20082;-73
2022/11/14 08:40:17;;;;;;;16.00;8.60;;;;;;;13.31;94.49;101593.63;4953840;28;20058;-73
2022/11/14 08:43:04;;;;;;;17.65;8.98;;;;;;;13.44;93.56;101592.28;4942329;29;20043;-73
2022/11/14 08:45:51;;;;;;;16.25;9.13;;;;;;;13.51;92.94;101593.97;4954809;29;20059;-73
2022/11/14 08:48:37;;;;;;;14.73;7.28;;;;;;;13.83;90.08;101596.41;4949900;29;20067;-73
2022/11/14 08:51:24;;;;;;;13.93;7.65;;;;;;;13.79;89.79;101594.50;4937907;29;20043;-73
2022/11/14 08:54:10;;;;;;;13.07;7.40;;;;;;;13.88;89.43;101595.56;4935625;29;20051;-73
2022/11/14 08:56:57;;;;;;;11.55;7.05;;;;;;;14.07;88.00;101595.81;4951253;29;20793;-73
2022/11/14 08:59:43;;;;;;;11.75;6.55;;;;;;;14.24;86.54;101601.00;4953315;29;20058;-73
2022/11/14 09:02:30;;;;;;;13.98;7.15;;;;;;;14.36;85.72;101592.44;4952058;28;20055;-74
2022/11/14 09:05:17;;;;;;;10.25;6.70;;;;;;;14.21;86.95;101598.81;4954270;28;20735;-73
2022/11/14 09:08:03;;;;;;;12.23;7.20;;;;;;;14.14;88.82;101592.78;4954422;28;20510;-73
2022/11/14 09:10:49;;;;;;;9.77;6.43;;;;;;;14.17;89.15;101589.47;4939660;28;20055;-73
2022/11/14 09:13:36;;;;;;;9.32;5.88;;;;;;;14.10;89.00;101588.94;4953020;29;20482;-74
2022/11/14 09:16:22;;;;;;;11.05;6.40;;;;;;;14.10;88.80;101586.19;4954566;29;20054;-73
2022/11/14 09:19:08;;;;;;;9.38;5.70;;;;;;;14.11;89.26;101590.59;4954632;29;20505;-73
2022/11/14 09:21:54;;;;;;;12.75;6.60;;;;;;;13.97;88.57;101585.66;4952214;29;20047;-73
2022/11/14 09:24:41;;;;;;;11.50;6.60;;;;;;;14.08;88.84;101586.47;4953920;28;20051;-74
2022/11/14 09:27:28;;;;;;;10.88;5.82;;;;;;;14.01;90.23;101585.09;4933456;29;20056;-73
2022/11/14 09:30:15;;;;;;;11.45;7.07;;;;;;;14.13;89.29;101582.88;4938277;29;20055;-73
2022/11/14 09:33:03;;;;;;;13.00;6.35;;;;;;;14.24;89.62;101581.72;4952244;28;20051;-73
2022/11/14 09:36:01;;;;;;;10.52;5.90;;;;;;;14.36;85.22;101580.59;4953081;29;20475;-73
2022/11/14 09:38:50;;;;;;;8.13;5.28;;;;;;;14.31;85.33;101589.69;4946817;28;20058;-73
2022/11/14 09:41:45;;;;;;;8.23;4.90;;;;;;;14.41;84.71;101588.84;4949735;29;20070;-73
2022/11/14 09:44:55;;;;;;;8.10;5.15;;;;;;;14.47;84.53;101584.16;4934790;29;20058;-73
2022/11/14 09:47:44;;;;;;;11.20;5.28;;;;;;;14.59;83.16;101576.38;4946576;29;20498;-73
2022/11/14 09:50:41;;;;;;;8.25;4.90;;;;;;;14.69;82.10;101572.75;4952030;28;20043;-73
2022/11/14 09:53:49;;;;;;;6.57;4.50;;;;;;;14.78;81.53;101571.06;4953956;29;20059;-73
2022/11/14 09:56:35;;;;;;;8.85;5.68;;;;;;;14.85;82.41;101570.75;4940879;29;20051;-74
2022/11/14 09:59:22;;;;;;;7.05;4.38;;;;;;;15.19;79.22;101571.91;4950877;28;20055;-74
2022/11/14 10:02:31;;;;;;;7.07;4.70;;;;;;;15.02;80.57;101573.13;4953861;29;20043;-74
2022/11/14 10:05:35;;;;;;;11.98;5.10;;;;;;;15.40;80.33;101558.78;4953763;29;20410;-73
2022/11/14 10:08:29;;;;;;;10.97;5.70;;;;;;;15.45;78.60;101564.25;4948361;29;20062;-73
2022/11/14 10:11:21;;;;;;;9.37;5.43;;;;;;;15.50;77.64;101563.38;4953277;29;20314;-73
2022/11/14 10:14:35;;;;;;;8.93;4.65;;;;;;;15.74;75.85;101565.38;4953874;29;20059;-73
2022/11/14 10:17:40;;;;;;;10.30;5.57;;;;;;;15.95;76.19;101563.28;4935201;28;20047;-73
2022/11/14 10:20:27;;;;;;;10.57;6.45;;;;;;;15.95;78.20;101551.41;4952645;29;20135;-74
2022/11/14 10:23:39;;;;;;;9.75;6.28;;;;;;;15.83;77.07;101554.50;4953127;28;20043;-74
2022/11/14 10:26:30;;;;;;;8.63;5.72;;;;;;;15.85;76.55;101542.06;4953670;28;20398;-74
2022/11/14 10:29:37;;;;;;;9.77;5.30;;;;;;;16.06;76.71;101541.88;4945146;28;20067;-73
2022/11/14 10:32:33;;;;;;;11.23;4.95;;;;;;;16.10;74.77;101534.66;4934612;29;20055;-73
2022/11/14 10:35:28;;;;;;;9.88;5.40;;;;;;;16.22;75.50;101523.19;4946956;29;20047;-74
2022/11/14 10:38:35;;;;;;;9.80;4.93;;;;;;;16.20;73.73;101527.38;4947316;29;20051;-73
2022/11/14 10:41:25;;;;;;;7.63;4.47;;;;;;;16.56;73.52;101521.38;4953572;28;20055;-74
2022/11/14 10:44:46;;;;;;;7.45;4.47;;;;;;;16.71;70.95;101525.06;4949738;29;20054;-73
2022/11/14 10:47:40;;;;;;;6.50;3.92;;;;;;;16.62;68.90;101514.66;4952502;28;20521;-71
2022/11/14 10:50:37;;;;;;;6.22;4.35;;;;;;;16.59;68.55;101515.25;4954991;28;20039;-72
2022/11/14 10:53:58;;;;;;;6.28;4.47;;;;;;;16.43;68.71;101511.06;4948390;28;20052;-72
2022/11/14 10:56:48;;;;;;;7.05;4.55;;;;;;;16.49;68.43;101516.22;4922617;29;20051;-72
2022/11/14 10:59:35;;;;;;;7.72;5.05;;;;;;;16.30;69.83;101513.44;4945184;28;20047;-71
2022/11/14 11:02:21;;;;;;;5.97;4.03;;;;;;;16.46;70.39;101507.69;4954328;29;20058;-72
2022/11/14 11:05:15;;;;;;;6.43;4.63;;;;;;;16.62;69.27;101509.13;4945460;28;20478;-72
2022/11/14 11:11:29;;;;;;;6.40;3.67;;;;;;;16.52;66.81;101510.09;4947117;29;20074;-72
2022/11/14 11:14:17;;;;;;;7.35;4.32;;;;;;;16.57;67.61;101492.59;4956193;28;20299;-71
2022/11/14 11:17:10;;;;;;;6.38;3.70;;;;;;;16.69;67.53;101496.88;4951943;28;20058;-73
2022/11/14 11:20:26;;;;;;;4.28;3.42;;;;;;;16.74;66.01;101499.56;4954753;28;20051;-72
2022/11/14 11:23:17;;;;;;;4.00;2.90;;;;;;;16.36;64.57;101490.16;4948323;28;20051;-72
2022/11/14 11:26:16;;;;;;;5.65;3.67;;;;;;;16.75;67.01;101487.38;4952189;28;20402;-72
2022/11/14 11:29:09;;;;;;;5.03;3.30;;;;;;;16.83;66.68;101480.34;4942049;28;20051;-72
2022/11/14 11:31:58;;;;;;;6.25;3.13;;;;;;;17.02;63.99;101474.81;4949726;28;20495;-72
2022/11/14 11:34:45;;;;;;;5.03;3.17;;;;;;;17.23;64.44;101466.19;4955921;29;20058;-72
2022/11/14 11:37:43;;;;;;;4.85;2.95;;;;;;;17.40;63.97;101465.63;4945504;29;20074;-72
2022/11/14 11:40:30;;;;;;;4.80;2.85;;;;;;;17.48;63.66;101459.34;4951598;29;20509;-72
2022/11/14 11:44:00;;;;;;;4.10;3.25;;;;;;;17.51;61.87;101461.53;4955830;29;20477;-73
2022/11/14 11:46:59;;;;;;;5.20;3.05;;;;;;;17.33;63.67;101468.75;4955561;29;20394;-73
2022/11/14 11:49:48;;;;;;;5.07;3.00;;;;;;;17.58;62.82;101461.09;4947381;29;20048;-73
2022/11/14 11:52:58;;;;;;;5.35;2.92;;;;;;;17.68;61.98;101463.69;4937858;29;20059;-73
2022/11/14 11:55:50;;;;;;;2.95;2.45;;;;;;;17.63;60.22;101455.47;4936332;29;20388;-72
2022/11/14 11:58:43;;;;;;;9.43;3.53;;;;;;;17.71;62.75;101449.22;4954568;29;20051;-72
2022/11/14 12:01:30;;;;;;;6.95;3.30;;;;;;;17.61;60.51;101449.44;4953251;28;20047;-73
2022/11/14 12:04:17;;;;;;;5.45;3.05;;;;;;;17.57;60.25;101442.88;4955459;29;20039;-73
2022/11/14 12:07:21;;;;;;;4.28;3.25;;;;;;;17.51;61.86;101455.16;4954191;29;20058;-73
2022/11/14 12:10:26;;;;;;;6.75;3.33;;;;;;;17.75;61.99;101451.38;4954047;29;20055;-73
2022/11/14 12:13:39;;;;;;;4.60;3.38;;;;;;;17.87;60.75;101440.59;4955268;29;20047;-73
2022/11/14 12:16:35;;;;;;;5.38;3.33;;;;;;;17.96;60.68;101449.00;4947069;28;20059;-72
2022/11/14 12:19:40;;;;;;;4.53;3.13;;;;;;;17.90;59.74;101444.72;4955119;29;20051;-72
2022/11/14 12:23:07;;;;;;;3.90;3.00;;;;;;;17.84;59.62;101436.50;4955202;29;20058;-72
2022/11/14 12:26:23;;;;;;;4.97;3.28;;;;;;;17.41;61.12;101434.84;4955062;28;20310;-72
2022/11/14 12:29:31;;;;;;;5.10;3.38;;;;;;;17.33;59.53;101428.09;4948639;28;20059;-72
2022/11/14 12:32:50;;;;;;;5.15;3.08;;;;;;;17.82;61.29;101432.41;4958020;28;20051;-73
2022/11/14 12:35:50;;;;;;;4.50;3.22;;;;;;;17.54;61.57;101427.69;4946373;29;20402;-72
2022/11/14 12:38:56;;;;;;;7.03;4.07;;;;;;;17.82;62.13;101430.47;4951261;28;20039;-73
2022/11/14 12:41:42;;;;;;;3.35;2.85;;;;;;;17.77;61.19;101424.19;4952937;28;20478;-72
2022/11/14 12:44:28;;;;;;;4.13;2.83;;;;;;;17.80;61.60;101423.59;4944011;29;20044;-72
2022/11/14 12:47:55;;;;;;;6.00;3.42;;;;;;;17.95;60.58;101419.69;4934089;29;20047;-73
2022/11/14 12:50:42;;;;;;;3.72;3.10;;;;;;;17.89;59.23;101427.25;4954523;29;20308;-73
2022/11/14 12:53:38;;;;;;;6.47;3.47;;;;;;;17.83;59.62;101420.19;4954601;29;20043;-73
2022/11/14 12:56:30;;;;;;;4.00;3.05;;;;;;;17.69;57.92;101409.97;4954503;29;20043;-72
2022/11/14 12:59:19;;;;;;;3.75;3.00;;;;;;;17.29;61.57;101415.16;4954503;29;20482;-73
2022/11/14 13:02:23;;;;;;;5.95;3.13;;;;;;;17.04;62.80;101411.75;4954456;29;20516;-73
2022/11/14 13:05:16;;;;;;;4.73;3.30;;;;;;;17.12;62.41;101416.59;4954307;29;20043;-72
2022/11/14 13:08:21;;;;;;;5.35;3.10;;;;;;;17.21;61.84;101407.59;4954163;29;20298;-73